Cambridge, MA (02138)

6:13 PM EDT on May 05, 2015 (GMT -0400)
Huron Village | | Change Station
CLOSE
Current Station
Personal Weather Station
Location: Cambridge, MA
Elevation: 62 ft
Nearby Weather Stations

Elev 62 ft 42.38 °N, 71.13 °W | Updated 1 minute ago

Partly Cloudy
Partly Cloudy
65.1 °F
Feels Like 65.1 °F
N
1.0
Wind Variable Wind from East
Gusts 1.0 mph

Today
High -- | Low -- °F
--% Chance of Precip.
Yesterday
High -- | Low -- °F
Precip. -- in
5:34 AM 7:48 PM
Full, 97% visible
Pressure 30.16 in
Visibility 10.0 miles
Clouds Scattered Clouds 9500 ft
Mostly Cloudy 21000 ft
Mostly Cloudy 27000 ft
Dew Point 55 °F
Humidity 70%
Rainfall 0.05 in
Snow Depth Not available.
UV 1 out of 12
Pollen 9.30 out of 12
Air Quality Not available.
Flu Activity Widespread
SPECI KBOS 052205Z 05011KT 10SM SCT095 BKN210 BKN270 15/11 A3016

More Conditions Fewer Conditions

Pressure 30.16 in
Visibility 10.0 miles
Clouds Scattered Clouds 9500 ft
Mostly Cloudy 21000 ft
Mostly Cloudy 27000 ft
Dew Point 55 °F
Humidity 70%
Rainfall 0.05 in
Snow Depth Not available.
UV 1 out of 12
Pollen 9.30 out of 12
Air Quality Not available.
Flu Activity Widespread
SPECI KBOS 052205Z 05011KT 10SM SCT095 BKN210 BKN270 15/11 A3016

More Conditions Fewer Conditions

10-Day Weather Forecast

Almanac

Astronomy

May. 05, 2015 Rise Set
Actual Time
Civil Twilight
Nautical Twilight
Astronomical Twilight
Moon
Length of Visible Light
Length of Day
Tomorrow will be .
, % of the Moon is Illuminated

Today's Extremes

State Highs State Lows

Community

WunderPhotos

Upload Photos

1,818,994 photos uploaded!

WunderBlogs® & News

Nearby

Air Quality

  Air Quality AQ Index Pollutant
Not available.

Snow Depth

Station Depth Elevation

Earthquake Activity

City Distance Mag. Time & Date
Minimum magnitude displayed is 2.5.

Coastal Water Temperatures

Place Temperature

Stations

Nearby Weather Stations

Station Location Temp. Windchill Dew Point Humidity Wind Precip. Elev Updated Type